MacDoel, California
Current Conditions -  °F | °C
As of 4:53 PM on Sunday 21 Dec 2014 (Local Time) from KSIY Reporting Station
Overcast Overcast  
Wind Chill: 57°   Ceiling: 5500
Heat Index: 57°   Visibility: 10mi
Dew Point: 48°   Wind: 8mph
Humidity: 72%   Direction: 250°WSW
Pressure: 30.25"   Gusts: NA
Location:  41.83°N, 122.01°W
Report Text: KSIY 220053Z AUTO 25007KT 10SM FEW042 OVC055 14/09 A3025 RMK AO2 SLP251 T01390089
Loading
Personal Weather Stations






























Interactive Weather Map New forecast layout! Learn more

10-Day Weather Forecast

Advertisements
Track Severe Weather on mobile